Elkhart, IN (46517)

1:11 PM EDT on August 03, 2015 (GMT -0400)
APRSWXNET | | Change Station
CLOSE
Current Station
Personal Weather Station
Location: Osceola, IN
Elevation: 750 ft
Nearby Weather Stations
Active Advisory: Flood Warning Active Notice: Local Storm Report

Elev 750 ft 41.64 °N, 86.04 °W | Updated 23 minutes ago

Clear
Clear
82 °F
Feels Like 85 °F
N
0
Wind Variable Wind from North
Gusts 12.0 mph

Today
High -- | Low -- °F
--% Chance of Precip.
Yesterday
High -- | Low -- °F
Precip. -- in
6:40 AM 8:59 PM
Waning Gibbous, 85% visible
Pressure 29.85 in
Visibility 10.0 miles
Clouds Scattered Clouds 3800 ft
Scattered Clouds 4600 ft
Heat Index 85 °F
Dew Point 67 °F
Humidity 61%
Rainfall in
Snow Depth Not available.
UV 8 out of 12
Pollen 4.30 out of 12
Air Quality Not available.
Flu Activity Not available.
METAR KEKM 031650Z 32010KT 10SM SCT038 SCT046 26/15 A2985 RMK AO2

More Conditions Fewer Conditions

Pressure 29.85 in
Visibility 10.0 miles
Clouds Scattered Clouds 3800 ft
Scattered Clouds 4600 ft
Heat Index 85 °F
Dew Point 67 °F
Humidity 61%
Rainfall in
Snow Depth Not available.
UV 8 out of 12
Pollen 4.30 out of 12
Air Quality Not available.
Flu Activity Not available.
METAR KEKM 031650Z 32010KT 10SM SCT038 SCT046 26/15 A2985 RMK AO2

More Conditions Fewer Conditions

10-Day Weather Forecast

×

Almanac

Astronomy

Aug. 03, 2015 Rise Set
Actual Time
Civil Twilight
Nautical Twilight
Astronomical Twilight
Moon
Length of Visible Light
Length of Day
Tomorrow will be .
, % of the Moon is Illuminated

Today's Extremes

State Highs State Lows

Community

WunderPhotos

Upload Photos

1,843,679 photos uploaded!

WunderBlogs® & News

Nearby

Air Quality

  Air Quality AQ Index Pollutant
Not available.

Snow Depth

Station Depth Elevation

Earthquake Activity

City Distance Mag. Time & Date
Minimum magnitude displayed is 2.5.

Coastal Water Temperatures

Place Temperature

Stations

Nearby Weather Stations

Station Location Temp. Windchill Dew Point Humidity Wind Precip. Elev Updated Type
                   
Flood Warning
Statement as of 12:32 PM EDT on August 03, 2015

the Flood Warning has been extended for
the North Branch Elkhart river at Cosperville
* until late Friday night.
* At 11 am Monday the stage was 6.4 feet and steady.
* Minor flooding is occurring and minor flooding is forecast.
* Flood stage is 6.0 feet.
* Forecast... the river will fall below the 6.0 foot flood stage
around 8 PM Friday August 7.
* At 6.5 feet... water begins to flood houses on Waldron Lake drive.
* This crest compares to a previous crest of 6.6 feet which occurred
on Dec 16 2011.


Lat... Lon 4150 8570 4152 8568 4149 8559 4150 8544
      4149 8543 4144 8555